createdAt,value
2022-08-21T00:00:20.379Z,19.11
2022-08-21T00:01:20.386Z,18.95
2022-08-21T00:02:20.525Z,19.00
2022-08-21T00:03:20.411Z,18.95
2022-08-21T00:04:22.036Z,18.95
2022-08-21T00:05:20.366Z,18.99
2022-08-21T00:06:20.366Z,18.95
2022-08-21T00:07:20.363Z,19.08
2022-08-21T00:08:20.363Z,18.95
2022-08-21T00:09:20.353Z,19.00
2022-08-21T00:10:20.354Z,18.93
2022-08-21T00:11:20.351Z,18.96
2022-08-21T00:12:20.358Z,18.98
2022-08-21T00:13:20.351Z,18.89
2022-08-21T00:14:20.352Z,18.95
2022-08-21T00:15:20.341Z,19.04
2022-08-21T00:16:20.340Z,18.89
2022-08-21T00:17:20.336Z,18.95
2022-08-21T00:18:20.335Z,18.96
2022-08-21T00:19:20.332Z,18.96
2022-08-21T00:20:20.332Z,19.00
2022-08-21T00:21:20.326Z,18.96
2022-08-21T00:22:20.337Z,18.93
2022-08-21T00:23:20.327Z,18.84
2022-08-21T00:24:20.323Z,18.84
2022-08-21T00:25:24.291Z,18.99
2022-08-21T00:26:20.326Z,18.98
2022-08-21T00:27:20.312Z,18.78
2022-08-21T00:28:20.312Z,18.98
2022-08-21T00:29:20.310Z,18.81
2022-08-21T00:30:22.870Z,18.98
2022-08-21T00:31:20.305Z,18.70
2022-08-21T00:32:20.312Z,18.86
2022-08-21T00:33:20.298Z,18.80
2022-08-21T00:34:20.295Z,18.83
2022-08-21T00:35:20.290Z,18.83
2022-08-21T00:36:20.291Z,18.89
2022-08-21T00:37:20.292Z,18.88
2022-08-21T00:38:20.289Z,18.88
2022-08-21T00:39:20.286Z,18.80
2022-08-21T00:40:20.337Z,18.74
2022-08-21T00:41:37.067Z,18.83
2022-08-21T00:42:20.288Z,18.70
2022-08-21T00:43:20.272Z,18.68
2022-08-21T00:44:20.269Z,18.70
2022-08-21T00:45:20.268Z,18.58
2022-08-21T00:46:20.265Z,18.71
2022-08-21T00:47:20.269Z,18.66
2022-08-21T00:48:20.261Z,18.81
2022-08-21T00:49:20.256Z,18.75
2022-08-21T00:50:21.963Z,18.68
2022-08-21T00:51:20.249Z,18.75
2022-08-21T00:52:20.255Z,18.73
2022-08-21T00:53:20.277Z,18.75
2022-08-21T00:54:20.246Z,18.74
2022-08-21T00:55:20.239Z,18.74
2022-08-21T00:56:20.238Z,18.58
2022-08-21T00:57:20.235Z,18.70
2022-08-21T00:58:20.232Z,18.71
2022-08-21T00:59:20.233Z,18.66
2022-08-21T01:00:20.227Z,18.66
2022-08-21T01:03:02.955Z,18.55
2022-08-21T01:04:02.942Z,18.59
2022-08-21T01:05:55.902Z,18.53
2022-08-21T01:06:55.881Z,18.50
2022-08-21T01:08:49.109Z,18.52
2022-08-21T01:09:48.989Z,18.59
2022-08-21T01:11:54.054Z,18.58
2022-08-21T01:12:53.696Z,18.50
2022-08-21T01:13:53.645Z,18.56
2022-08-21T01:14:53.643Z,18.44
2022-08-21T01:15:53.642Z,18.56
2022-08-21T01:16:53.641Z,18.45
2022-08-21T01:17:53.635Z,18.44
2022-08-21T01:18:53.632Z,18.55
2022-08-21T01:19:53.627Z,18.45
2022-08-21T01:20:53.631Z,18.43
2022-08-21T01:21:53.622Z,18.47
2022-08-21T01:22:53.622Z,18.41
2022-08-21T01:23:53.614Z,18.37
2022-08-21T01:24:53.615Z,18.38
2022-08-21T01:25:53.613Z,18.41
2022-08-21T01:26:53.616Z,18.40
2022-08-21T01:27:53.606Z,18.35
2022-08-21T01:28:53.609Z,18.43
2022-08-21T01:29:53.601Z,18.33
2022-08-21T01:30:53.600Z,18.28
2022-08-21T01:31:53.595Z,18.35
2022-08-21T01:32:53.597Z,18.33
2022-08-21T01:33:53.587Z,18.31
2022-08-21T01:34:53.619Z,18.26
2022-08-21T01:35:53.590Z,18.22
2022-08-21T01:36:53.578Z,18.19
2022-08-21T01:37:53.577Z,18.19
2022-08-21T01:38:53.575Z,18.15
2022-08-21T01:39:53.621Z,18.20
2022-08-21T01:40:53.572Z,18.22
2022-08-21T01:41:53.570Z,18.15
2022-08-21T01:42:53.562Z,18.15
2022-08-21T01:43:53.561Z,18.18
2022-08-21T01:44:54.791Z,18.16
2022-08-21T01:45:53.562Z,18.10
2022-08-21T01:46:53.553Z,18.16
2022-08-21T01:47:53.544Z,18.05
2022-08-21T01:48:53.547Z,18.11
2022-08-21T01:49:53.540Z,18.15
2022-08-21T01:50:56.856Z,18.05
2022-08-21T01:51:53.534Z,18.04
2022-08-21T01:52:53.529Z,18.07
2022-08-21T01:53:53.529Z,18.04
2022-08-21T01:54:55.484Z,18.04
2022-08-21T01:55:53.526Z,18.03
2022-08-21T01:56:53.521Z,18.03
2022-08-21T01:57:53.588Z,18.00
2022-08-21T01:58:53.512Z,18.05
2022-08-21T01:59:53.511Z,18.01
2022-08-21T02:00:53.554Z,17.98
2022-08-21T02:01:53.503Z,18.00
2022-08-21T02:02:53.499Z,17.97
2022-08-21T02:03:53.502Z,17.98
2022-08-21T02:04:53.496Z,17.95
2022-08-21T02:05:53.489Z,18.00
2022-08-21T02:06:53.487Z,17.97
2022-08-21T02:07:53.484Z,17.95
2022-08-21T02:08:53.484Z,17.87
2022-08-21T02:09:53.478Z,17.87
2022-08-21T02:10:53.475Z,17.92
2022-08-21T02:11:53.472Z,17.90
2022-08-21T02:12:53.469Z,17.86
2022-08-21T02:13:53.466Z,17.86
2022-08-21T02:14:53.463Z,17.87
2022-08-21T02:15:53.460Z,17.86
2022-08-21T02:16:53.459Z,17.82
2022-08-21T02:17:53.455Z,17.83
2022-08-21T02:18:53.449Z,17.72
2022-08-21T02:19:53.445Z,17.72
2022-08-21T02:20:55.268Z,17.78
2022-08-21T02:21:53.438Z,17.71
2022-08-21T02:22:53.440Z,17.76
2022-08-21T02:23:53.436Z,17.71
2022-08-21T02:24:54.371Z,17.74
2022-08-21T02:25:53.425Z,17.71
2022-08-21T02:26:53.425Z,17.76
2022-08-21T02:27:53.422Z,17.65
2022-08-21T02:28:53.419Z,17.72
2022-08-21T02:29:53.413Z,17.56
2022-08-21T02:30:53.411Z,17.65
2022-08-21T02:31:53.406Z,17.71
2022-08-21T02:32:53.408Z,17.72
2022-08-21T02:33:53.402Z,17.70
2022-08-21T02:34:53.404Z,17.64
2022-08-21T02:35:53.396Z,17.65
2022-08-21T02:36:58.738Z,17.65
2022-08-21T02:37:53.388Z,17.59
2022-08-21T02:38:53.385Z,17.65
2022-08-21T02:39:53.468Z,17.57
2022-08-21T02:40:53.380Z,17.60
2022-08-21T02:41:53.377Z,17.51
2022-08-21T02:42:53.373Z,17.48
2022-08-21T02:43:53.374Z,17.48
2022-08-21T02:44:53.369Z,17.48
2022-08-21T02:45:53.365Z,17.48
2022-08-21T02:46:53.361Z,17.51
2022-08-21T02:47:53.352Z,17.42
2022-08-21T02:48:53.350Z,17.46
2022-08-21T02:49:53.352Z,17.44
2022-08-21T02:50:53.345Z,17.46
2022-08-21T02:51:53.346Z,17.39
2022-08-21T02:52:54.914Z,17.41
2022-08-21T02:53:53.334Z,17.41
2022-08-21T02:54:53.332Z,17.34
2022-08-21T02:55:53.328Z,17.38
2022-08-21T02:56:53.326Z,17.38
2022-08-21T02:57:53.318Z,17.33
2022-08-21T02:58:54.058Z,17.34
2022-08-21T02:59:53.314Z,17.33
2022-08-21T03:00:53.311Z,17.34
2022-08-21T03:01:53.332Z,17.26
2022-08-21T03:02:53.306Z,17.27
2022-08-21T03:03:53.304Z,17.26
2022-08-21T03:04:53.298Z,17.23
2022-08-21T03:05:53.295Z,17.24
2022-08-21T03:06:53.292Z,17.22
2022-08-21T03:07:53.288Z,17.16
2022-08-21T03:08:53.283Z,17.12
2022-08-21T03:09:55.480Z,17.14
2022-08-21T03:10:53.282Z,17.06
2022-08-21T03:11:53.273Z,17.23
2022-08-21T03:12:53.270Z,17.12
2022-08-21T03:13:53.271Z,17.22
2022-08-21T03:14:53.264Z,17.11
2022-08-21T03:15:53.260Z,17.15
2022-08-21T03:16:53.255Z,17.20
2022-08-21T03:17:53.250Z,17.11
2022-08-21T03:18:53.246Z,17.15
2022-08-21T03:19:53.249Z,17.14
2022-08-21T03:20:53.242Z,17.12
2022-08-21T03:21:53.241Z,17.14
2022-08-21T03:22:53.331Z,17.01
2022-08-21T03:23:53.234Z,17.04
2022-08-21T03:24:53.238Z,17.01
2022-08-21T03:25:53.734Z,16.94
2022-08-21T03:26:53.222Z,17.04
2022-08-21T03:27:57.009Z,17.02
2022-08-21T03:28:53.213Z,16.99
2022-08-21T03:29:53.206Z,17.02
2022-08-21T03:30:53.207Z,17.06
2022-08-21T03:31:53.202Z,17.04
2022-08-21T03:32:53.202Z,16.86
2022-08-21T03:33:53.196Z,17.02
2022-08-21T03:34:53.191Z,16.99
2022-08-21T03:35:53.188Z,16.91
2022-08-21T03:36:53.185Z,16.99
2022-08-21T03:37:53.181Z,16.87
2022-08-21T03:38:53.176Z,16.90
2022-08-21T03:39:53.212Z,16.96
2022-08-21T03:40:53.172Z,16.90
2022-08-21T03:41:53.166Z,16.90
2022-08-21T03:42:53.167Z,16.90
2022-08-21T03:43:53.162Z,16.89
2022-08-21T03:44:53.158Z,16.93
2022-08-21T03:45:53.150Z,16.87
2022-08-21T03:46:53.151Z,16.87
2022-08-21T03:47:53.144Z,16.86
2022-08-21T03:48:53.144Z,16.81
2022-08-21T03:49:53.138Z,16.86
2022-08-21T03:50:53.134Z,16.87
2022-08-21T03:51:55.563Z,16.83
2022-08-21T03:52:53.127Z,16.83
2022-08-21T03:53:53.121Z,16.79
2022-08-21T03:54:53.119Z,16.75
2022-08-21T03:55:53.112Z,16.78
2022-08-21T03:56:53.110Z,16.78
2022-08-21T03:57:53.109Z,16.84
2022-08-21T03:58:53.103Z,16.75
2022-08-21T03:59:53.103Z,16.74
2022-08-21T04:00:53.097Z,16.76
2022-08-21T04:01:53.142Z,16.72
2022-08-21T04:02:53.092Z,16.71
2022-08-21T04:03:53.084Z,16.72
2022-08-21T04:04:53.083Z,16.61
2022-08-21T04:05:53.076Z,16.68
2022-08-21T04:06:53.074Z,16.71
2022-08-21T04:07:53.086Z,16.65
2022-08-21T04:08:53.067Z,16.68
2022-08-21T04:09:53.061Z,16.72
2022-08-21T04:10:53.056Z,16.69
2022-08-21T04:11:53.055Z,16.72
2022-08-21T04:12:53.064Z,16.61
2022-08-21T04:13:53.047Z,16.65
2022-08-21T04:14:53.044Z,16.64
2022-08-21T04:15:53.039Z,16.69
2022-08-21T04:16:53.037Z,16.57
2022-08-21T04:17:53.030Z,16.64
2022-08-21T04:18:53.028Z,16.65
2022-08-21T04:19:53.965Z,16.65
2022-08-21T04:20:53.023Z,16.66
2022-08-21T04:21:53.018Z,16.61
2022-08-21T04:22:53.015Z,16.66
2022-08-21T04:23:53.008Z,16.68
2022-08-21T04:24:53.028Z,16.66
2022-08-21T04:25:53.002Z,16.64
2022-08-21T04:26:52.997Z,16.69
2022-08-21T04:27:52.992Z,16.58
2022-08-21T04:28:52.986Z,16.69
2022-08-21T04:29:52.985Z,16.65
2022-08-21T04:30:53.190Z,16.65
2022-08-21T04:31:52.978Z,16.66
2022-08-21T04:32:52.976Z,16.61
2022-08-21T04:33:52.968Z,16.65
2022-08-21T04:34:52.985Z,16.61
2022-08-21T04:35:52.961Z,16.66
2022-08-21T04:36:52.962Z,16.58
2022-08-21T04:37:52.956Z,16.60
2022-08-21T04:38:52.951Z,16.57
2022-08-21T04:39:53.620Z,16.65
2022-08-21T04:40:52.951Z,16.64
2022-08-21T04:41:52.938Z,16.64
2022-08-21T04:42:52.936Z,16.66
2022-08-21T04:43:52.934Z,16.61
2022-08-21T04:44:52.932Z,16.66
2022-08-21T04:45:52.922Z,16.65
2022-08-21T04:46:52.922Z,16.66
2022-08-21T04:47:53.485Z,16.61
2022-08-21T04:48:52.917Z,16.72
2022-08-21T04:49:52.909Z,16.69
2022-08-21T04:50:52.904Z,16.72
2022-08-21T04:51:52.900Z,16.69
2022-08-21T04:52:52.897Z,16.71
2022-08-21T04:53:53.092Z,16.74
2022-08-21T04:54:54.913Z,16.66
2022-08-21T04:55:52.885Z,16.76
2022-08-21T04:56:52.903Z,16.71
2022-08-21T04:57:52.884Z,16.71
2022-08-21T04:58:52.873Z,16.72
2022-08-21T04:59:52.868Z,16.79
2022-08-21T05:00:52.866Z,16.79
2022-08-21T05:01:52.941Z,16.84
2022-08-21T05:02:52.854Z,16.78
2022-08-21T05:03:52.854Z,16.84
2022-08-21T05:04:52.847Z,16.89
2022-08-21T05:05:52.844Z,16.86
2022-08-21T05:06:52.842Z,16.93
2022-08-21T05:07:52.840Z,16.94
2022-08-21T05:08:52.833Z,16.89
2022-08-21T05:09:52.829Z,16.91
2022-08-21T05:10:55.906Z,16.96
2022-08-21T05:11:52.826Z,16.97
2022-08-21T05:12:52.834Z,16.93
2022-08-21T05:13:57.489Z,16.93
2022-08-21T05:14:52.812Z,17.01
2022-08-21T05:15:52.807Z,16.91
2022-08-21T05:16:52.810Z,17.04
2022-08-21T05:18:00.562Z,17.01
2022-08-21T05:18:52.796Z,16.94
2022-08-21T05:19:52.793Z,17.12
2022-08-21T05:20:52.794Z,17.04
2022-08-21T05:21:52.785Z,17.04
2022-08-21T05:22:52.780Z,17.05
2022-08-21T05:23:52.777Z,17.16
2022-08-21T05:24:52.775Z,17.15
2022-08-21T05:25:52.770Z,17.14
2022-08-21T05:26:52.767Z,17.11
2022-08-21T05:27:52.762Z,17.09
2022-08-21T05:28:52.758Z,17.05
2022-08-21T05:29:52.756Z,17.11
2022-08-21T05:30:52.749Z,17.15
2022-08-21T05:31:52.745Z,17.06
2022-08-21T05:32:52.746Z,17.16
2022-08-21T05:33:52.743Z,17.06
2022-08-21T05:34:52.740Z,17.23
2022-08-21T05:35:52.733Z,17.23
2022-08-21T05:36:52.729Z,17.15
2022-08-21T05:37:59.893Z,17.16
2022-08-21T05:40:20.029Z,17.14
2022-08-21T05:40:45.682Z,17.16
2022-08-21T05:42:38.571Z,17.23
2022-08-21T05:43:38.548Z,17.31
2022-08-21T05:45:44.153Z,17.30
2022-08-21T05:46:42.525Z,17.30
2022-08-21T05:48:46.513Z,17.36
2022-08-21T05:49:46.510Z,17.41
2022-08-21T05:51:50.491Z,17.46
2022-08-21T05:52:50.479Z,17.54
2022-08-21T05:54:54.460Z,17.52
2022-08-21T05:55:54.447Z,17.51
2022-08-21T05:57:58.444Z,17.52
2022-08-21T05:58:58.421Z,17.57
2022-08-21T06:01:02.431Z,17.56
2022-08-21T06:02:05.515Z,17.70
2022-08-21T06:04:06.390Z,17.74
2022-08-21T06:05:06.366Z,17.94
2022-08-21T06:06:59.302Z,17.94
2022-08-21T06:07:59.285Z,17.97
2022-08-21T06:09:52.235Z,17.97
2022-08-21T06:10:52.219Z,18.01
2022-08-21T06:12:56.212Z,18.04
2022-08-21T06:13:56.208Z,17.97
2022-08-21T06:15:49.123Z,18.04
2022-08-21T06:16:49.109Z,18.10
2022-08-21T06:18:53.110Z,18.16
2022-08-21T06:19:53.101Z,18.22
2022-08-21T06:21:57.089Z,18.19
2022-08-21T06:22:57.202Z,18.29
2022-08-21T06:25:01.078Z,18.28
2022-08-21T06:26:01.047Z,18.34
2022-08-21T06:28:05.531Z,18.44
2022-08-21T06:29:05.655Z,18.56
2022-08-21T06:30:05.520Z,18.50
2022-08-21T06:31:05.515Z,18.60
2022-08-21T06:32:05.514Z,18.60
2022-08-21T06:33:05.568Z,18.63
2022-08-21T06:34:05.506Z,18.60
2022-08-21T06:35:05.504Z,18.52
2022-08-21T06:36:05.500Z,18.63
2022-08-21T06:37:05.497Z,18.65
2022-08-21T06:38:05.496Z,18.62
2022-08-21T06:39:16.612Z,18.71
2022-08-21T06:40:05.538Z,18.70
2022-08-21T06:41:05.486Z,18.80
2022-08-21T06:42:05.482Z,18.70
2022-08-21T06:43:05.478Z,18.73
2022-08-21T06:44:05.476Z,18.88
2022-08-21T06:45:05.474Z,18.75
2022-08-21T06:46:05.469Z,18.73
2022-08-21T06:47:05.467Z,18.80
2022-08-21T06:48:05.465Z,18.77
2022-08-21T06:49:05.462Z,18.90
2022-08-21T06:50:05.464Z,18.89
2022-08-21T06:51:05.457Z,18.92
2022-08-21T06:52:05.450Z,18.96
2022-08-21T06:53:05.453Z,18.95
2022-08-21T06:54:05.445Z,19.02
2022-08-21T06:55:05.441Z,19.07
2022-08-21T06:56:05.441Z,19.18
2022-08-21T06:57:05.439Z,19.29
2022-08-21T06:58:05.437Z,19.47
2022-08-21T06:59:05.432Z,19.52
2022-08-21T07:00:05.430Z,19.51
2022-08-21T07:01:05.515Z,19.59
2022-08-21T07:02:05.426Z,19.73
2022-08-21T07:03:05.443Z,19.74
2022-08-21T07:04:05.420Z,19.81
2022-08-21T07:05:11.800Z,19.84
2022-08-21T07:06:05.420Z,20.04
2022-08-21T07:07:05.415Z,20.13
2022-08-21T07:08:05.421Z,20.03
2022-08-21T07:09:05.406Z,20.16
2022-08-21T07:10:05.406Z,20.13
2022-08-21T07:11:05.410Z,20.07
2022-08-21T07:12:05.412Z,20.10
2022-08-21T07:13:05.618Z,20.19
2022-08-21T07:14:05.399Z,20.36
2022-08-21T07:15:05.395Z,20.47
2022-08-21T07:16:05.396Z,20.52
2022-08-21T07:17:05.391Z,20.63
2022-08-21T07:18:05.387Z,20.75
2022-08-21T07:19:05.387Z,20.75
2022-08-21T07:20:05.384Z,20.92
2022-08-21T07:21:05.384Z,21.09
2022-08-21T07:22:05.382Z,21.12
2022-08-21T07:23:05.376Z,21.30
2022-08-21T07:24:05.375Z,21.46
2022-08-21T07:25:05.375Z,21.79
2022-08-21T07:26:05.369Z,21.72
2022-08-21T07:27:09.779Z,21.70
2022-08-21T07:28:05.377Z,21.66
2022-08-21T07:29:05.374Z,21.48
2022-08-21T07:30:05.370Z,21.57
2022-08-21T07:31:05.374Z,21.72
2022-08-21T07:32:05.365Z,21.69
2022-08-21T07:33:05.365Z,21.82
2022-08-21T07:34:05.366Z,21.77
2022-08-21T07:35:05.362Z,21.50
2022-08-21T07:36:05.360Z,21.46
2022-08-21T07:37:06.305Z,21.39
2022-08-21T07:38:05.357Z,21.48
2022-08-21T07:39:05.352Z,21.66
2022-08-21T07:40:05.403Z,21.58
2022-08-21T07:41:05.357Z,21.54
2022-08-21T07:42:08.398Z,21.60
2022-08-21T07:43:05.358Z,21.57
2022-08-21T07:44:06.573Z,21.61
2022-08-21T07:45:05.351Z,21.50
2022-08-21T07:46:05.350Z,21.43
2022-08-21T07:47:05.356Z,21.39
2022-08-21T07:48:05.344Z,21.55
2022-08-21T07:49:05.356Z,21.46
2022-08-21T07:50:05.354Z,21.51
2022-08-21T07:51:05.348Z,21.48
2022-08-21T07:52:05.347Z,21.42
2022-08-21T07:53:05.344Z,21.45
2022-08-21T07:54:05.352Z,21.48
2022-08-21T07:55:06.505Z,21.39
2022-08-21T07:56:05.337Z,21.32
2022-08-21T07:57:05.338Z,21.30
2022-08-21T07:58:05.339Z,21.25
2022-08-21T07:59:05.335Z,21.27
2022-08-21T08:00:05.336Z,21.15
2022-08-21T08:01:05.355Z,21.15
2022-08-21T08:02:05.332Z,21.22
2022-08-21T08:03:05.332Z,21.20
2022-08-21T08:04:05.330Z,21.18
2022-08-21T08:05:05.331Z,21.15
2022-08-21T08:06:05.336Z,21.18
2022-08-21T08:07:05.323Z,21.15
2022-08-21T08:08:05.332Z,21.20
2022-08-21T08:09:05.323Z,21.15
2022-08-21T08:10:05.322Z,21.21
2022-08-21T08:11:05.322Z,21.20
2022-08-21T08:12:05.324Z,21.30
2022-08-21T08:13:05.320Z,21.30
2022-08-21T08:14:05.316Z,21.32
2022-08-21T08:15:05.320Z,21.24
2022-08-21T08:16:05.311Z,21.17
2022-08-21T08:17:05.313Z,21.25
2022-08-21T08:18:05.314Z,21.20
2022-08-21T08:19:05.309Z,21.21
2022-08-21T08:20:05.317Z,21.32
2022-08-21T08:21:05.313Z,21.39
2022-08-21T08:22:05.307Z,21.43
2022-08-21T08:23:05.306Z,21.51
2022-08-21T08:24:19.050Z,21.50
2022-08-21T08:25:09.287Z,21.55
2022-08-21T08:26:05.301Z,21.48
2022-08-21T08:27:05.299Z,21.40
2022-08-21T08:28:16.406Z,21.51
2022-08-21T08:29:05.295Z,21.39
2022-08-21T08:30:05.305Z,21.52
2022-08-21T08:31:05.295Z,21.55
2022-08-21T08:32:05.291Z,21.50
2022-08-21T08:33:05.299Z,21.46
2022-08-21T08:34:05.290Z,21.48
2022-08-21T08:35:05.290Z,21.40
2022-08-21T08:36:08.144Z,21.37
2022-08-21T08:37:05.287Z,21.37
2022-08-21T08:38:05.282Z,21.46
2022-08-21T08:39:05.283Z,21.35
2022-08-21T08:40:05.521Z,21.35
2022-08-21T08:41:05.280Z,21.25
2022-08-21T08:42:33.140Z,21.25
2022-08-21T08:43:05.278Z,21.30
2022-08-21T08:44:05.314Z,21.21
2022-08-21T08:45:05.280Z,21.07
2022-08-21T08:46:05.275Z,21.09
2022-08-21T08:47:05.273Z,21.06
2022-08-21T08:48:05.277Z,21.18
2022-08-21T08:49:05.276Z,21.21
2022-08-21T08:50:05.271Z,21.39
2022-08-21T08:51:05.266Z,21.39
2022-08-21T08:52:05.265Z,21.48
2022-08-21T08:53:05.956Z,21.58
2022-08-21T08:54:05.269Z,21.67
2022-08-21T08:55:05.261Z,21.64
2022-08-21T08:56:05.294Z,21.62
2022-08-21T08:57:05.260Z,21.46
2022-08-21T08:58:05.265Z,21.58
2022-08-21T08:59:05.256Z,21.66
2022-08-21T09:00:05.265Z,21.67
2022-08-21T09:01:05.285Z,21.69
2022-08-21T09:02:05.259Z,21.70
2022-08-21T09:03:05.251Z,21.57
2022-08-21T09:04:05.251Z,21.69
2022-08-21T09:05:05.252Z,21.67
2022-08-21T09:06:05.250Z,21.69
2022-08-21T09:07:05.253Z,21.51
2022-08-21T09:08:05.249Z,21.64
2022-08-21T09:09:05.244Z,21.55
2022-08-21T09:10:05.247Z,21.60
2022-08-21T09:11:05.242Z,21.66
2022-08-21T09:12:05.240Z,21.69
2022-08-21T09:13:05.243Z,21.83
2022-08-21T09:14:05.240Z,21.92
2022-08-21T09:15:05.237Z,21.95
2022-08-21T09:16:05.238Z,22.06
2022-08-21T09:17:05.234Z,21.95
2022-08-21T09:18:07.623Z,21.93
2022-08-21T09:19:05.231Z,21.92
2022-08-21T09:20:05.234Z,21.99
2022-08-21T09:21:05.232Z,21.95
2022-08-21T09:22:05.231Z,21.88
2022-08-21T09:23:05.228Z,21.95
2022-08-21T09:24:05.227Z,22.08
2022-08-21T09:25:05.226Z,22.11
2022-08-21T09:26:05.229Z,22.10
2022-08-21T09:27:05.219Z,22.11
2022-08-21T09:28:05.220Z,22.06
2022-08-21T09:29:05.220Z,22.15
2022-08-21T09:30:05.223Z,22.25
2022-08-21T09:31:05.221Z,22.17
2022-08-21T09:32:05.225Z,22.26
2022-08-21T09:33:05.227Z,22.30
2022-08-21T09:34:05.217Z,22.39
2022-08-21T09:35:05.218Z,22.45
2022-08-21T09:36:05.215Z,22.36
2022-08-21T09:37:05.215Z,22.28
2022-08-21T09:38:05.218Z,22.14
2022-08-21T09:39:05.214Z,22.18
2022-08-21T09:40:05.251Z,22.13
2022-08-21T09:41:05.210Z,22.13
2022-08-21T09:42:05.211Z,22.10
2022-08-21T09:43:05.217Z,22.08
2022-08-21T09:44:05.210Z,22.18
2022-08-21T09:45:05.212Z,22.29
2022-08-21T09:46:05.206Z,22.35
2022-08-21T09:47:05.207Z,22.45
2022-08-21T09:48:05.202Z,22.38
2022-08-21T09:49:06.788Z,22.36
2022-08-21T09:50:05.205Z,22.45
2022-08-21T09:51:05.204Z,22.47
2022-08-21T09:52:05.211Z,22.57
2022-08-21T09:53:05.203Z,22.66
2022-08-21T09:54:05.203Z,22.72
2022-08-21T09:55:05.200Z,22.85
2022-08-21T09:56:05.206Z,23.02
2022-08-21T09:57:05.199Z,23.05
2022-08-21T09:58:05.202Z,22.96
2022-08-21T09:59:05.204Z,22.75
2022-08-21T10:00:05.195Z,22.80
2022-08-21T10:01:05.254Z,22.84
2022-08-21T10:02:05.203Z,22.75
2022-08-21T10:03:05.209Z,22.73
2022-08-21T10:04:05.196Z,22.83
2022-08-21T10:05:05.198Z,22.99
2022-08-21T10:06:05.200Z,23.06
2022-08-21T10:07:05.194Z,23.20
2022-08-21T10:08:05.193Z,23.09
2022-08-21T10:09:05.196Z,23.06
2022-08-21T10:10:05.193Z,23.08
2022-08-21T10:11:05.193Z,23.25
2022-08-21T10:12:05.195Z,23.23
2022-08-21T10:13:05.193Z,23.41
2022-08-21T10:14:05.193Z,23.24
2022-08-21T10:15:08.415Z,23.39
2022-08-21T10:16:05.192Z,23.40
2022-08-21T10:17:05.199Z,23.39
2022-08-21T10:18:05.194Z,23.47
2022-08-21T10:19:05.189Z,23.44
2022-08-21T10:20:05.190Z,23.50
2022-08-21T10:21:07.292Z,23.56
2022-08-21T10:22:05.191Z,23.48
2022-08-21T10:23:05.219Z,23.48
2022-08-21T10:24:05.188Z,23.54
2022-08-21T10:25:05.197Z,23.44
2022-08-21T10:26:13.342Z,23.47
2022-08-21T10:27:05.190Z,23.46
2022-08-21T10:28:05.191Z,23.43
2022-08-21T10:29:05.189Z,23.31
2022-08-21T10:30:05.194Z,23.43
2022-08-21T10:31:05.190Z,23.39
2022-08-21T10:32:05.190Z,23.31
2022-08-21T10:33:05.194Z,23.39
2022-08-21T10:34:05.205Z,23.40
2022-08-21T10:35:05.187Z,23.46
2022-08-21T10:36:05.189Z,23.47
2022-08-21T10:37:10.625Z,23.56
2022-08-21T10:38:05.190Z,23.61
2022-08-21T10:39:26.018Z,23.63
2022-08-21T10:40:05.231Z,23.69
2022-08-21T10:41:05.189Z,23.73
2022-08-21T10:42:05.203Z,23.81
2022-08-21T10:43:05.191Z,23.95
2022-08-21T10:44:05.191Z,24.05
2022-08-21T10:45:05.215Z,24.06
2022-08-21T10:46:05.189Z,24.16
2022-08-21T10:47:05.185Z,24.23
2022-08-21T10:48:05.195Z,24.14
2022-08-21T10:49:05.196Z,24.02
2022-08-21T10:50:05.187Z,23.88
2022-08-21T10:51:05.189Z,23.83
2022-08-21T10:52:05.191Z,23.68
2022-08-21T10:53:05.195Z,23.63
2022-08-21T10:54:05.191Z,23.54
2022-08-21T10:55:05.191Z,23.44
2022-08-21T10:56:05.194Z,23.51
2022-08-21T10:57:05.192Z,23.61
2022-08-21T10:58:05.193Z,23.48
2022-08-21T10:59:05.194Z,23.65
2022-08-21T11:00:05.195Z,23.54
2022-08-21T11:01:05.272Z,23.61
2022-08-21T11:02:05.191Z,23.69
2022-08-21T11:03:05.201Z,23.68
2022-08-21T11:04:05.193Z,23.76
2022-08-21T11:05:05.188Z,23.88
2022-08-21T11:06:05.189Z,23.74
2022-08-21T11:07:09.210Z,23.74
2022-08-21T11:08:05.190Z,23.76
2022-08-21T11:09:05.191Z,23.71
2022-08-21T11:10:05.196Z,23.77
2022-08-21T11:11:05.191Z,23.74
2022-08-21T11:12:11.405Z,23.78
2022-08-21T11:13:05.189Z,23.78
2022-08-21T11:14:05.192Z,23.96
2022-08-21T11:15:05.191Z,24.01
2022-08-21T11:16:05.197Z,24.03
2022-08-21T11:17:05.193Z,24.21
2022-08-21T11:18:05.200Z,24.14
2022-08-21T11:19:05.191Z,24.33
2022-08-21T11:20:05.195Z,24.51
2022-08-21T11:21:05.194Z,24.40
2022-08-21T11:22:05.191Z,24.50
2022-08-21T11:23:05.568Z,24.63
2022-08-21T11:24:05.720Z,24.65
2022-08-21T11:25:05.195Z,24.66
2022-08-21T11:26:05.193Z,24.65
2022-08-21T11:27:05.191Z,24.78
2022-08-21T11:28:05.195Z,24.73
2022-08-21T11:29:05.194Z,24.76
2022-08-21T11:30:05.194Z,24.86
2022-08-21T11:31:05.194Z,24.78
2022-08-21T11:32:05.195Z,24.73
2022-08-21T11:33:05.197Z,24.70
2022-08-21T11:34:05.201Z,24.65
2022-08-21T11:35:05.195Z,24.66
2022-08-21T11:36:05.249Z,24.66
2022-08-21T11:37:05.195Z,24.66
2022-08-21T11:38:05.197Z,24.65
2022-08-21T11:39:05.196Z,24.57
2022-08-21T11:40:05.228Z,24.74
2022-08-21T11:41:05.199Z,24.86
2022-08-21T11:42:08.850Z,24.86
2022-08-21T11:43:05.198Z,24.81
2022-08-21T11:44:05.198Z,24.74
2022-08-21T11:45:05.199Z,24.65
2022-08-21T11:46:05.199Z,24.55
2022-08-21T11:47:05.198Z,24.33
2022-08-21T11:48:05.201Z,24.38
2022-08-21T11:49:05.203Z,24.28
2022-08-21T11:50:05.202Z,24.21
2022-08-21T11:51:05.214Z,24.21
2022-08-21T11:52:05.197Z,24.35
2022-08-21T11:53:05.201Z,24.32
2022-08-21T11:54:07.349Z,24.36
2022-08-21T11:55:05.201Z,24.24
2022-08-21T11:56:05.207Z,24.11
2022-08-21T11:57:05.202Z,24.17
2022-08-21T11:58:05.204Z,24.11
2022-08-21T11:59:05.203Z,24.23
2022-08-21T12:00:05.211Z,24.18
2022-08-21T12:01:05.203Z,24.38
2022-08-21T12:02:13.965Z,24.36
2022-08-21T12:03:58.816Z,24.45
2022-08-21T12:04:58.809Z,24.40
2022-08-21T12:05:58.806Z,24.50
2022-08-21T12:06:58.804Z,24.51
2022-08-21T12:08:00.986Z,24.39
2022-08-21T12:08:58.807Z,24.29
2022-08-21T12:09:58.808Z,24.26
2022-08-21T12:10:58.807Z,24.26
2022-08-21T12:11:58.806Z,24.36
2022-08-21T12:12:58.964Z,24.24
2022-08-21T12:13:58.809Z,24.24
2022-08-21T12:14:58.808Z,24.33
2022-08-21T12:15:58.808Z,24.40
2022-08-21T12:16:58.807Z,24.35
2022-08-21T12:17:58.808Z,24.45
2022-08-21T12:18:58.816Z,24.42
2022-08-21T12:19:58.810Z,24.29
2022-08-21T12:20:58.809Z,24.35
2022-08-21T12:21:58.809Z,24.40
2022-08-21T12:22:59.037Z,24.35
2022-08-21T12:23:58.810Z,24.38
2022-08-21T12:24:58.810Z,24.53
2022-08-21T12:25:58.821Z,24.50
2022-08-21T12:26:58.808Z,24.35
2022-08-21T12:27:58.812Z,24.40
2022-08-21T12:28:58.810Z,24.38
2022-08-21T12:29:58.810Z,24.29
2022-08-21T12:30:58.809Z,24.35
2022-08-21T12:31:58.811Z,24.48
2022-08-21T12:32:58.975Z,24.54
2022-08-21T12:33:58.809Z,24.60
2022-08-21T12:34:58.808Z,24.55
2022-08-21T12:35:58.825Z,24.60
2022-08-21T12:36:58.813Z,24.50
2022-08-21T12:37:58.812Z,24.68
2022-08-21T12:38:58.811Z,24.70
2022-08-21T12:39:58.847Z,24.84
2022-08-21T12:40:58.814Z,24.61
2022-08-21T12:42:01.763Z,24.60
2022-08-21T12:42:59.322Z,24.61
2022-08-21T12:43:58.830Z,24.65
2022-08-21T12:44:58.814Z,24.69
2022-08-21T12:45:58.816Z,24.50
2022-08-21T12:46:58.814Z,24.50
2022-08-21T12:47:58.813Z,24.48
2022-08-21T12:48:58.815Z,24.39
2022-08-21T12:49:58.815Z,24.57
2022-08-21T12:50:58.817Z,24.61
2022-08-21T12:51:58.815Z,24.61
2022-08-21T12:52:58.924Z,24.58
2022-08-21T12:53:58.816Z,24.55
2022-08-21T12:54:58.819Z,24.57
2022-08-21T12:55:58.819Z,24.51
2022-08-21T12:56:58.814Z,24.51
2022-08-21T12:57:58.819Z,24.54
2022-08-21T12:58:58.817Z,24.53
2022-08-21T12:59:58.816Z,24.45
2022-08-21T13:00:58.816Z,24.32
2022-08-21T13:01:58.881Z,24.33
2022-08-21T13:02:58.999Z,24.23
2022-08-21T13:04:04.490Z,24.30
2022-08-21T13:04:58.816Z,24.36
2022-08-21T13:05:58.822Z,24.36
2022-08-21T13:06:58.817Z,24.47
2022-08-21T13:07:58.816Z,24.48
2022-08-21T13:08:58.817Z,24.60
2022-08-21T13:09:58.816Z,24.68
2022-08-21T13:10:58.828Z,24.77
2022-08-21T13:11:58.818Z,24.77
2022-08-21T13:12:58.982Z,24.70
2022-08-21T13:14:02.869Z,24.73
2022-08-21T13:14:58.816Z,24.66